createdAt,value
2023-02-03T00:01:44.922Z,1.21
2023-02-03T00:04:11.578Z,1.21
2023-02-03T00:06:38.178Z,1.27
2023-02-03T00:09:04.979Z,0.86
2023-02-03T00:11:31.674Z,0.96
2023-02-03T00:13:58.363Z,0.94
2023-02-03T00:16:25.029Z,1.17
2023-02-03T00:18:51.790Z,0.89
2023-02-03T00:21:18.506Z,0.88
2023-02-03T00:23:45.204Z,0.94
2023-02-03T00:26:13.817Z,1.03
2023-02-03T00:28:40.421Z,0.77
2023-02-03T00:31:08.274Z,0.75
2023-02-03T00:33:35.071Z,0.97
2023-02-03T00:36:06.222Z,1.06
2023-02-03T00:38:32.821Z,1.28
2023-02-03T00:40:59.501Z,1.34
2023-02-03T00:43:26.231Z,1.64
2023-02-03T00:45:52.962Z,1.54
2023-02-03T00:48:20.714Z,1.38
2023-02-03T00:50:47.726Z,1.56
2023-02-03T00:53:14.375Z,1.73
2023-02-03T00:55:42.952Z,1.53
2023-02-03T00:58:09.609Z,1.46
2023-02-03T01:00:36.220Z,1.19
2023-02-03T01:03:03.514Z,1.14
2023-02-03T01:05:30.251Z,1.04
2023-02-03T01:07:56.933Z,1.14
2023-02-03T01:10:23.616Z,1.02
2023-02-03T01:12:50.370Z,0.68
2023-02-03T01:15:17.072Z,0.60
2023-02-03T01:17:43.782Z,0.40
2023-02-03T01:20:12.391Z,0.51
2023-02-03T01:22:38.952Z,0.62
2023-02-03T01:25:05.976Z,0.60
2023-02-03T01:27:33.315Z,0.81
2023-02-03T01:30:00.014Z,1.01
2023-02-03T01:32:27.168Z,0.95
2023-02-03T01:34:53.779Z,1.26
2023-02-03T01:37:20.537Z,1.12
2023-02-03T01:39:47.141Z,0.63
2023-02-03T01:42:14.463Z,0.62
2023-02-03T01:44:43.442Z,0.63
2023-02-03T01:47:16.360Z,1.00
2023-02-03T01:49:45.479Z,0.89
2023-02-03T01:52:12.168Z,1.09
2023-02-03T01:54:41.520Z,1.32
2023-02-03T01:57:13.455Z,1.09
2023-02-03T01:59:40.149Z,1.09
2023-02-03T02:02:06.844Z,0.74
2023-02-03T02:05:07.038Z,0.51
2023-02-03T02:07:34.525Z,0.33
2023-02-03T02:10:01.307Z,0.30
2023-02-03T02:12:27.895Z,0.06
2023-02-03T02:14:54.542Z,-0.38
2023-02-03T02:17:58.650Z,-0.32
2023-02-03T02:20:32.639Z,-0.21
2023-02-03T02:23:17.846Z,-0.21
2023-02-03T02:25:48.837Z,-0.20
2023-02-03T02:28:44.711Z,-0.29
2023-02-03T02:31:17.520Z,-0.60
2023-02-03T02:33:45.995Z,-0.67
2023-02-03T02:36:25.513Z,-0.45
2023-02-03T02:38:59.704Z,-0.36
2023-02-03T02:41:47.352Z,-0.21
2023-02-03T02:44:17.788Z,-0.48
2023-02-03T02:46:52.888Z,-0.31
2023-02-03T02:49:40.201Z,-0.39
2023-02-03T02:52:07.017Z,-0.35
2023-02-03T02:54:33.777Z,-0.22
2023-02-03T02:57:01.960Z,-0.33
2023-02-03T02:59:28.729Z,-0.66
2023-02-03T03:01:55.537Z,-0.50
2023-02-03T03:04:25.077Z,-0.67
2023-02-03T03:06:58.538Z,-0.56
2023-02-03T03:09:36.092Z,-0.58
2023-02-03T03:12:15.202Z,-0.67
2023-02-03T03:14:44.867Z,-0.46
2023-02-03T03:17:12.316Z,-0.23
2023-02-03T03:19:41.938Z,-0.37
2023-02-03T03:22:09.906Z,-0.48
2023-02-03T03:24:49.293Z,-0.47
2023-02-03T03:27:23.669Z,-0.53
2023-02-03T03:29:58.493Z,-0.51
2023-02-03T03:32:25.168Z,-0.39
2023-02-03T03:34:51.820Z,-0.46
2023-02-03T03:37:42.909Z,-0.61
2023-02-03T03:40:29.063Z,-0.53
2023-02-03T03:43:01.398Z,-0.52
2023-02-03T03:45:49.456Z,-0.56
2023-02-03T03:48:32.446Z,-0.77
2023-02-03T03:51:20.136Z,-0.65
2023-02-03T03:53:47.616Z,-0.65
2023-02-03T03:56:17.595Z,-0.75
2023-02-03T03:58:45.359Z,-0.75
2023-02-03T04:01:12.172Z,-0.46
2023-02-03T04:03:41.220Z,-0.71
2023-02-03T04:06:07.912Z,-0.52
2023-02-03T04:08:34.537Z,-0.68
2023-02-03T04:11:01.284Z,-0.62
2023-02-03T04:13:27.884Z,-0.74
2023-02-03T04:15:54.623Z,-0.72
2023-02-03T04:18:21.324Z,-0.68
2023-02-03T04:20:48.410Z,-0.78
2023-02-03T04:23:15.126Z,-0.64
2023-02-03T04:25:42.019Z,-0.45
2023-02-03T04:28:08.982Z,-0.76
2023-02-03T04:30:35.650Z,-0.68
2023-02-03T04:33:02.365Z,-0.71
2023-02-03T04:35:29.072Z,-0.88
2023-02-03T04:37:55.742Z,-0.64
2023-02-03T04:40:22.341Z,-0.67
2023-02-03T04:42:49.052Z,-0.59
2023-02-03T04:45:15.712Z,-0.76
2023-02-03T04:47:42.395Z,-0.90
2023-02-03T04:50:09.381Z,-0.76
2023-02-03T04:52:36.002Z,-0.78
2023-02-03T04:55:04.030Z,-0.73
2023-02-03T04:57:30.919Z,-0.74
2023-02-03T04:59:57.568Z,-0.52
2023-02-03T05:02:24.216Z,-0.35
2023-02-03T05:04:50.935Z,-0.51
2023-02-03T05:07:17.559Z,-0.49
2023-02-03T05:09:44.202Z,-0.39
2023-02-03T05:12:10.850Z,-0.32
2023-02-03T05:14:37.527Z,-0.39
2023-02-03T05:17:04.173Z,-0.37
2023-02-03T05:19:30.833Z,-0.36
2023-02-03T05:21:57.495Z,-0.58
2023-02-03T05:24:24.107Z,-0.35
2023-02-03T05:26:50.792Z,-0.45
2023-02-03T05:29:17.398Z,-0.60
2023-02-03T05:31:44.143Z,-0.57
2023-02-03T05:34:10.803Z,-0.63
2023-02-03T05:36:37.416Z,-0.61
2023-02-03T05:39:04.293Z,-0.64
2023-02-03T05:41:49.835Z,-0.73
2023-02-03T05:44:16.532Z,-0.84
2023-02-03T05:46:43.150Z,-0.78
2023-02-03T05:49:09.861Z,-0.61
2023-02-03T05:51:36.495Z,-0.36
2023-02-03T05:54:03.171Z,-0.55
2023-02-03T05:56:29.778Z,-0.33
2023-02-03T05:58:56.420Z,-0.54
2023-02-03T06:01:23.079Z,-0.60
2023-02-03T06:03:49.977Z,-0.66
2023-02-03T06:06:16.699Z,-0.69
2023-02-03T06:08:43.544Z,-0.73
2023-02-03T06:11:10.532Z,-0.35
2023-02-03T06:13:37.188Z,-0.43
2023-02-03T06:16:04.013Z,-0.39
2023-02-03T06:18:30.682Z,-0.47
2023-02-03T06:20:57.396Z,-0.51
2023-02-03T06:23:24.064Z,-0.56
2023-02-03T06:25:51.124Z,-0.75
2023-02-03T06:28:18.141Z,-0.50
2023-02-03T06:30:45.108Z,-0.53
2023-02-03T06:33:11.935Z,-0.49
2023-02-03T06:35:38.629Z,-0.57
2023-02-03T06:38:05.373Z,-0.61
2023-02-03T06:40:31.979Z,-0.52
2023-02-03T06:42:58.708Z,-0.34
2023-02-03T06:45:25.877Z,-0.47
2023-02-03T06:47:52.691Z,-0.38
2023-02-03T06:50:19.383Z,-0.45
2023-02-03T06:52:46.021Z,-0.46
2023-02-03T06:55:12.801Z,-0.19
2023-02-03T06:57:46.782Z,-0.04
2023-02-03T07:00:16.167Z,-0.20
2023-02-03T07:02:44.263Z,-0.16
2023-02-03T07:05:10.984Z,-0.29
2023-02-03T07:07:39.503Z,-0.26
2023-02-03T07:10:06.804Z,-0.09
2023-02-03T07:12:33.428Z,-0.19
2023-02-03T07:15:00.095Z,-0.17
2023-02-03T07:17:26.872Z,-0.08
2023-02-03T07:19:53.615Z,-0.35
2023-02-03T07:22:20.370Z,-0.17
2023-02-03T07:24:47.061Z,-0.22
2023-02-03T07:27:13.653Z,0.01
2023-02-03T07:29:40.343Z,0.04
2023-02-03T07:32:07.210Z,-0.18
2023-02-03T07:34:33.866Z,-0.02
2023-02-03T07:37:00.562Z,-0.08
2023-02-03T07:39:27.173Z,0.16
2023-02-03T07:41:53.805Z,0.53
2023-02-03T07:44:20.444Z,0.44
2023-02-03T07:46:47.201Z,0.20
2023-02-03T07:49:14.196Z,0.38
2023-02-03T07:51:41.078Z,0.10
2023-02-03T07:54:07.910Z,0.27
2023-02-03T07:56:34.546Z,0.31
2023-02-03T07:59:01.497Z,0.33
2023-02-03T08:01:28.441Z,0.46
2023-02-03T08:03:55.442Z,0.43
2023-02-03T08:06:22.230Z,0.28
2023-02-03T08:08:48.871Z,0.41
2023-02-03T08:11:15.526Z,0.28
2023-02-03T08:13:42.186Z,0.22
2023-02-03T08:16:08.913Z,0.16
2023-02-03T08:18:35.597Z,0.10
2023-02-03T08:21:04.127Z,0.47
2023-02-03T08:23:31.189Z,0.71
2023-02-03T08:25:57.992Z,0.60
2023-02-03T08:28:24.655Z,0.48
2023-02-03T08:30:51.383Z,0.50
2023-02-03T08:33:18.126Z,0.49
2023-02-03T08:35:48.810Z,0.87
2023-02-03T08:38:15.660Z,0.90
2023-02-03T08:40:42.345Z,1.07
2023-02-03T08:43:09.123Z,0.70
2023-02-03T08:45:35.804Z,0.80
2023-02-03T08:48:02.574Z,0.98
2023-02-03T08:50:29.491Z,1.00
2023-02-03T08:52:56.313Z,0.77
2023-02-03T08:55:22.997Z,0.88
2023-02-03T08:57:49.716Z,0.77
2023-02-03T09:00:16.708Z,0.71
2023-02-03T09:02:43.391Z,1.10
2023-02-03T09:05:10.267Z,0.85
2023-02-03T09:07:36.961Z,1.00
2023-02-03T09:10:03.922Z,1.17
2023-02-03T09:12:30.622Z,1.03
2023-02-03T09:14:57.324Z,1.00
2023-02-03T09:17:24.037Z,0.77
2023-02-03T09:19:50.761Z,0.99
2023-02-03T09:22:17.432Z,0.65
2023-02-03T09:24:44.277Z,0.61
2023-02-03T09:27:11.080Z,0.69
2023-02-03T09:29:37.916Z,0.86
2023-02-03T09:32:08.915Z,1.11
2023-02-03T09:34:35.756Z,1.22
2023-02-03T09:37:02.483Z,0.89
2023-02-03T09:39:29.282Z,1.04
2023-02-03T09:42:33.921Z,1.52
2023-02-03T09:45:18.434Z,1.51
2023-02-03T09:47:45.444Z,1.39
2023-02-03T09:50:20.333Z,1.33
2023-02-03T09:52:47.553Z,1.48
2023-02-03T09:55:37.386Z,1.79
2023-02-03T09:58:13.055Z,1.42
2023-02-03T10:00:47.400Z,1.50
2023-02-03T10:03:20.315Z,1.37
2023-02-03T10:06:14.053Z,1.31
2023-02-03T10:09:06.790Z,1.47
2023-02-03T10:11:54.768Z,1.34
2023-02-03T10:15:00.279Z,1.40
2023-02-03T10:17:36.720Z,1.47
2023-02-03T10:20:09.305Z,1.49
2023-02-03T10:22:40.636Z,1.52
2023-02-03T10:25:24.802Z,1.35
2023-02-03T10:27:52.219Z,1.28
2023-02-03T10:30:29.619Z,1.52
2023-02-03T10:33:00.497Z,2.18
2023-02-03T10:35:32.589Z,2.59
2023-02-03T10:37:59.479Z,2.49
2023-02-03T10:40:26.720Z,2.58
2023-02-03T10:43:12.021Z,2.86
2023-02-03T10:45:38.759Z,3.01
2023-02-03T10:48:07.295Z,3.46
2023-02-03T10:50:33.943Z,3.43
2023-02-03T10:53:23.284Z,2.59
2023-02-03T10:56:01.671Z,2.42
2023-02-03T10:58:29.541Z,1.92
2023-02-03T11:01:14.111Z,1.81
2023-02-03T11:03:54.588Z,1.48
2023-02-03T11:06:21.201Z,1.76
2023-02-03T11:08:48.726Z,2.09
2023-02-03T11:11:37.431Z,2.39
2023-02-03T11:14:04.060Z,2.15
2023-02-03T11:16:30.955Z,2.73
2023-02-03T11:19:03.817Z,2.95
2023-02-03T11:21:32.461Z,3.01
2023-02-03T11:24:21.038Z,3.06
2023-02-03T11:27:09.397Z,2.66
2023-02-03T11:29:37.480Z,2.68
2023-02-03T11:32:49.444Z,2.25
2023-02-03T11:35:26.289Z,2.32
2023-02-03T11:37:56.296Z,2.42
2023-02-03T11:40:26.331Z,2.79
2023-02-03T11:42:53.080Z,2.38
2023-02-03T11:45:29.454Z,2.52
2023-02-03T11:48:11.004Z,2.65
2023-02-03T11:50:54.977Z,2.71
2023-02-03T11:54:00.554Z,2.56
2023-02-03T11:56:39.199Z,2.35
2023-02-03T11:59:14.733Z,2.70
2023-02-03T12:01:57.599Z,3.32
2023-02-03T12:04:35.873Z,2.54
2023-02-03T12:07:17.660Z,2.67
2023-02-03T12:09:46.407Z,2.57
2023-02-03T12:12:20.111Z,2.72
2023-02-03T12:14:55.623Z,2.81
2023-02-03T12:17:25.407Z,2.72
2023-02-03T12:20:29.403Z,2.27
2023-02-03T12:23:33.065Z,2.38
2023-02-03T12:26:02.701Z,2.87
2023-02-03T12:28:43.849Z,2.73
2023-02-03T12:31:29.493Z,2.95
2023-02-03T12:34:13.504Z,2.73
2023-02-03T12:36:41.788Z,2.54
2023-02-03T12:39:15.159Z,2.49
2023-02-03T12:41:45.389Z,2.14
2023-02-03T12:44:38.205Z,2.03
2023-02-03T12:47:09.299Z,2.49
2023-02-03T12:49:52.636Z,2.35
2023-02-03T12:52:38.959Z,1.87
2023-02-03T12:55:27.391Z,2.22
2023-02-03T12:58:18.204Z,2.42
2023-02-03T13:01:06.276Z,2.25
2023-02-03T13:03:54.423Z,1.97
2023-02-03T13:06:27.971Z,2.22
2023-02-03T13:09:02.887Z,2.14
2023-02-03T13:11:46.644Z,2.51
2023-02-03T13:14:31.914Z,2.55
2023-02-03T13:17:01.954Z,2.58
2023-02-03T13:19:32.146Z,2.80
2023-02-03T13:21:58.794Z,2.93
2023-02-03T13:24:25.494Z,3.04
2023-02-03T13:27:26.222Z,2.64
2023-02-03T13:30:08.823Z,2.30
2023-02-03T13:32:56.894Z,2.15
2023-02-03T13:35:33.866Z,1.76
2023-02-03T13:38:13.312Z,2.14
2023-02-03T13:41:01.625Z,1.81
2023-02-03T13:43:38.252Z,2.24
2023-02-03T13:46:07.932Z,1.94
2023-02-03T13:48:35.513Z,1.91
2023-02-03T13:51:13.799Z,2.02
2023-02-03T13:53:40.799Z,1.85
2023-02-03T13:56:09.305Z,1.89
2023-02-03T13:58:38.175Z,1.73
2023-02-03T14:01:06.134Z,1.97
2023-02-03T14:03:42.015Z,1.87
2023-02-03T14:06:30.832Z,1.56
2023-02-03T14:09:00.508Z,1.23
2023-02-03T14:11:36.273Z,1.27
2023-02-03T14:14:05.715Z,1.45
2023-02-03T14:16:35.966Z,1.36
2023-02-03T14:19:02.695Z,1.61
2023-02-03T14:21:36.958Z,1.74
2023-02-03T14:24:09.290Z,1.55
2023-02-03T14:26:38.807Z,1.31
2023-02-03T14:29:06.172Z,1.20
2023-02-03T14:31:33.070Z,1.09
2023-02-03T14:34:10.096Z,1.07
2023-02-03T14:36:45.822Z,1.16
2023-02-03T14:39:18.665Z,1.12
2023-02-03T14:42:03.552Z,1.14
2023-02-03T14:45:07.490Z,1.07
2023-02-03T14:47:34.071Z,1.16
2023-02-03T14:50:34.158Z,1.39
2023-02-03T14:53:39.018Z,1.37
2023-02-03T14:56:13.940Z,1.57
2023-02-03T14:58:49.749Z,1.47
2023-02-03T15:01:42.863Z,1.15
2023-02-03T15:04:09.542Z,0.98
2023-02-03T15:06:41.197Z,0.97
2023-02-03T15:09:45.970Z,1.11
2023-02-03T15:12:19.224Z,0.98
2023-02-03T15:14:45.868Z,1.02
2023-02-03T15:17:18.874Z,1.10
2023-02-03T15:19:45.800Z,0.79
2023-02-03T15:22:26.663Z,0.82
2023-02-03T15:24:56.014Z,0.83
2023-02-03T15:27:27.313Z,0.86
2023-02-03T15:29:54.441Z,0.60
2023-02-03T15:32:31.041Z,0.69
2023-02-03T15:34:57.825Z,0.38
2023-02-03T15:37:48.231Z,0.46
2023-02-03T15:40:18.871Z,0.63
2023-02-03T15:42:58.933Z,0.36
2023-02-03T15:45:46.060Z,0.18
2023-02-03T15:48:23.975Z,0.38
2023-02-03T15:50:53.630Z,0.24
2023-02-03T15:53:29.678Z,0.35
2023-02-03T15:56:05.472Z,0.22
2023-02-03T15:58:44.808Z,0.26
2023-02-03T16:01:17.964Z,0.17
2023-02-03T16:03:55.111Z,0.22
2023-02-03T16:06:30.649Z,0.41
2023-02-03T16:08:58.836Z,0.19
2023-02-03T16:11:28.413Z,0.27
2023-02-03T16:13:59.740Z,0.39
2023-02-03T16:16:29.161Z,0.43
2023-02-03T16:19:01.531Z,0.60
2023-02-03T16:21:29.530Z,0.26
2023-02-03T16:23:56.412Z,0.25
2023-02-03T16:26:24.914Z,0.17
2023-02-03T16:29:16.323Z,0.03
2023-02-03T16:32:04.397Z,0.08
2023-02-03T16:34:49.537Z,0.14
2023-02-03T16:37:45.888Z,0.04
2023-02-03T16:40:31.962Z,0.09
2023-02-03T16:43:17.057Z,0.26
2023-02-03T16:46:02.507Z,0.08
2023-02-03T16:48:47.749Z,0.01
2023-02-03T16:51:18.516Z,0.05
2023-02-03T16:53:45.606Z,-0.23
2023-02-03T16:56:12.491Z,-0.41
2023-02-03T16:58:39.251Z,-0.55
2023-02-03T17:01:06.468Z,-0.51
2023-02-03T17:03:36.376Z,-0.48
2023-02-03T17:06:08.111Z,-0.34
2023-02-03T17:08:34.880Z,-0.39
2023-02-03T17:11:13.527Z,-0.53
2023-02-03T17:13:40.487Z,-0.52
2023-02-03T17:16:14.659Z,-0.51
2023-02-03T17:18:41.381Z,-0.45
2023-02-03T17:21:09.963Z,-0.35
2023-02-03T17:23:36.700Z,-0.47
2023-02-03T17:26:03.468Z,-0.35
2023-02-03T17:28:30.063Z,-0.41
2023-02-03T17:30:58.355Z,-0.42
2023-02-03T17:33:25.220Z,-0.39
2023-02-03T17:36:03.624Z,-0.29
2023-02-03T17:38:30.817Z,-0.39
2023-02-03T17:54:39.721Z,-0.38
2023-02-03T17:57:06.473Z,-0.35
2023-02-03T17:59:35.040Z,-0.21
2023-02-03T18:02:01.907Z,-0.33
2023-02-03T18:04:28.680Z,-0.32
2023-02-03T18:06:55.364Z,-0.44
2023-02-03T18:09:22.062Z,-0.59
2023-02-03T18:11:48.671Z,-0.55
2023-02-03T18:14:16.323Z,-0.49
2023-02-03T18:16:43.080Z,-0.39
2023-02-03T18:19:12.985Z,-0.29
2023-02-03T18:21:39.817Z,-0.48
2023-02-03T18:24:06.676Z,-0.73
2023-02-03T18:26:34.506Z,-0.61
2023-02-03T18:29:01.347Z,-0.42
2023-02-03T18:31:28.146Z,-0.34
2023-02-03T18:33:54.913Z,-0.37
2023-02-03T18:36:21.564Z,-0.40
2023-02-03T18:38:48.401Z,-0.46
2023-02-03T18:41:16.191Z,-0.39
2023-02-03T18:43:42.943Z,-0.29
2023-02-03T18:46:10.693Z,-0.37
2023-02-03T18:48:37.443Z,-0.44
2023-02-03T18:51:08.227Z,-0.44
2023-02-03T18:53:34.958Z,-0.38
2023-02-03T18:56:01.729Z,-0.29
2023-02-03T18:58:28.686Z,-0.31
2023-02-03T19:00:56.133Z,-0.41
2023-02-03T19:03:24.843Z,-0.45
2023-02-03T19:05:51.485Z,-0.48
2023-02-03T19:08:18.147Z,-0.41
2023-02-03T19:10:44.742Z,-0.52
2023-02-03T19:13:11.649Z,-0.60
2023-02-03T19:15:38.525Z,-0.64
2023-02-03T19:18:05.293Z,-0.62
2023-02-03T19:20:31.942Z,-0.53
2023-02-03T19:22:58.727Z,-0.51
2023-02-03T19:25:27.850Z,-0.48
2023-02-03T19:27:54.547Z,-0.27
2023-02-03T19:30:22.074Z,-0.33
2023-02-03T19:32:48.740Z,-0.23
2023-02-03T19:35:15.625Z,-0.30
2023-02-03T19:37:42.397Z,-0.13
2023-02-03T19:40:09.641Z,-0.01
2023-02-03T19:42:36.332Z,-0.19
2023-02-03T19:45:03.005Z,0.02
2023-02-03T19:47:29.669Z,0.06
2023-02-03T19:49:56.392Z,-0.06
2023-02-03T19:52:23.028Z,-0.06
2023-02-03T19:54:49.652Z,-0.12
2023-02-03T19:57:16.429Z,-0.10
2023-02-03T19:59:43.064Z,-0.04
2023-02-03T20:02:14.301Z,-0.04
2023-02-03T20:04:41.805Z,-0.04
2023-02-03T20:07:08.554Z,-0.04
2023-02-03T20:09:35.240Z,-0.01
2023-02-03T20:12:01.942Z,0.01
2023-02-03T20:14:28.653Z,0.05
2023-02-03T20:16:55.361Z,0.06
2023-02-03T20:19:22.146Z,0.23
2023-02-03T20:21:48.798Z,0.31
2023-02-03T20:24:15.490Z,0.34
2023-02-03T20:26:42.084Z,0.40
2023-02-03T20:29:08.732Z,0.28
2023-02-03T20:31:35.753Z,0.28
2023-02-03T20:34:04.147Z,0.44
2023-02-03T20:36:30.925Z,0.66
2023-02-03T20:38:57.587Z,0.61
2023-02-03T20:41:24.260Z,0.53
2023-02-03T20:43:50.841Z,0.43
2023-02-03T20:46:18.472Z,0.37
2023-02-03T20:48:45.233Z,0.47
2023-02-03T20:51:13.044Z,0.64
2023-02-03T20:53:39.852Z,0.58
2023-02-03T20:56:14.053Z,0.63
2023-02-03T20:58:40.947Z,0.68
2023-02-03T21:01:33.901Z,0.63
2023-02-03T21:04:19.177Z,0.80
2023-02-03T21:06:45.837Z,0.64
2023-02-03T21:09:16.287Z,0.71
2023-02-03T21:11:43.237Z,0.65
2023-02-03T21:14:35.003Z,0.76
2023-02-03T21:17:01.765Z,0.81
2023-02-03T21:19:32.711Z,0.72
2023-02-03T21:21:59.940Z,0.81
2023-02-03T21:24:33.067Z,0.87
2023-02-03T21:27:00.344Z,0.74
2023-02-03T21:29:30.075Z,0.88
2023-02-03T21:31:56.982Z,0.75
2023-02-03T21:34:34.375Z,0.83
2023-02-03T21:37:37.074Z,0.78
2023-02-03T21:40:17.426Z,0.73
2023-02-03T21:42:45.964Z,0.75
2023-02-03T21:45:19.348Z,0.69
2023-02-03T21:47:49.145Z,0.83
2023-02-03T21:50:29.856Z,0.71
2023-02-03T21:53:14.277Z,0.74
2023-02-03T21:55:41.374Z,0.63
2023-02-03T21:58:34.689Z,0.55
2023-02-03T22:01:02.752Z,0.63
2023-02-03T22:03:40.737Z,0.55
2023-02-03T22:06:16.618Z,0.48
2023-02-03T22:08:47.844Z,0.38
2023-02-03T22:11:15.341Z,0.49
2023-02-03T22:13:42.786Z,0.41
2023-02-03T22:16:09.697Z,0.29
2023-02-03T22:18:37.615Z,0.25
2023-02-03T22:21:04.333Z,0.21
2023-02-03T22:23:31.785Z,0.05
2023-02-03T22:25:58.532Z,0.10
2023-02-03T22:28:25.399Z,0.07
2023-02-03T22:30:52.448Z,-0.07
2023-02-03T22:33:19.255Z,0.03
2023-02-03T22:35:45.877Z,-0.03
2023-02-03T22:38:12.626Z,0.10
2023-02-03T22:40:39.346Z,0.06
2023-02-03T22:43:06.033Z,0.05
2023-02-03T22:45:32.713Z,-0.03
2023-02-03T22:48:00.382Z,-0.06
2023-02-03T22:50:35.535Z,-0.17
2023-02-03T22:53:07.063Z,-0.19
2023-02-03T22:55:33.821Z,-0.19
2023-02-03T22:58:00.498Z,-0.03
2023-02-03T23:00:27.270Z,-0.22
2023-02-03T23:02:54.401Z,-0.37
2023-02-03T23:05:21.106Z,-0.44
2023-02-03T23:07:48.157Z,-0.46
2023-02-03T23:10:19.918Z,-0.32
2023-02-03T23:12:46.628Z,-0.38
2023-02-03T23:15:13.559Z,-0.61
2023-02-03T23:17:40.531Z,-0.57
2023-02-03T23:20:07.972Z,-0.47
2023-02-03T23:22:34.856Z,-0.48
2023-02-03T23:25:02.545Z,-0.49
2023-02-03T23:27:29.263Z,-0.67
2023-02-03T23:29:55.984Z,-0.59
2023-02-03T23:32:22.833Z,-0.75
2023-02-03T23:35:07.893Z,-0.73
2023-02-03T23:37:34.485Z,-0.69
2023-02-03T23:40:01.140Z,-0.61
2023-02-03T23:42:27.738Z,-0.62
2023-02-03T23:44:55.902Z,-0.54
2023-02-03T23:47:22.650Z,-0.53
2023-02-03T23:49:49.351Z,-0.64
2023-02-03T23:52:15.995Z,-0.63
2023-02-03T23:54:42.650Z,-0.48
2023-02-03T23:57:09.452Z,-0.40
2023-02-03T23:59:36.117Z,-0.36
